createdAt,value
2023-01-29T00:02:33.161Z,34.40
2023-01-29T00:07:37.350Z,33.77
2023-01-29T00:12:40.377Z,33.67
2023-01-29T00:17:43.191Z,35.13
2023-01-29T00:22:47.475Z,32.87
2023-01-29T00:27:50.338Z,34.43
2023-01-29T00:32:54.011Z,33.13
2023-01-29T00:37:59.017Z,34.47
2023-01-29T00:43:19.422Z,33.93
2023-01-29T00:48:22.283Z,32.93
2023-01-29T00:53:26.690Z,33.20
2023-01-29T00:58:34.160Z,33.47
2023-01-29T01:03:42.359Z,33.73
2023-01-29T01:09:04.159Z,32.47
2023-01-29T01:14:07.022Z,32.97
2023-01-29T01:19:10.531Z,33.03
2023-01-29T01:24:15.162Z,33.50
2023-01-29T01:29:18.120Z,33.13
2023-01-29T01:34:22.052Z,33.20
2023-01-29T01:39:26.594Z,33.40
2023-01-29T01:44:55.827Z,33.53
2023-01-29T01:50:02.873Z,33.67
2023-01-29T01:55:09.595Z,32.80
2023-01-29T02:00:16.310Z,33.27
2023-01-29T02:05:37.074Z,32.70
2023-01-29T02:10:45.241Z,32.57
2023-01-29T02:15:48.766Z,33.20
2023-01-29T02:21:07.523Z,32.50
2023-01-29T02:26:51.048Z,32.03
2023-01-29T02:32:05.730Z,32.40
2023-01-29T02:37:13.361Z,32.30
2023-01-29T02:42:25.242Z,32.60
2023-01-29T02:47:35.948Z,32.77
2023-01-29T02:52:49.683Z,32.17
2023-01-29T02:57:56.915Z,33.37
2023-01-29T03:03:08.110Z,32.97
2023-01-29T03:08:15.488Z,33.30
2023-01-29T03:13:42.255Z,33.00
2023-01-29T03:18:53.608Z,33.17
2023-01-29T03:24:14.838Z,33.03
2023-01-29T03:29:35.425Z,33.50
2023-01-29T03:34:43.624Z,33.40
2023-01-29T03:39:46.894Z,32.87
2023-01-29T03:45:00.294Z,33.87
2023-01-29T03:50:12.299Z,33.77
2023-01-29T03:55:18.452Z,33.37
2023-01-29T04:00:25.564Z,32.77
2023-01-29T04:05:45.947Z,34.03
2023-01-29T04:10:59.994Z,32.80
2023-01-29T04:16:07.263Z,33.07
2023-01-29T04:21:32.910Z,32.87
2023-01-29T04:26:56.291Z,32.47
2023-01-29T04:32:06.685Z,32.70
2023-01-29T04:37:19.133Z,32.90
2023-01-29T04:42:30.751Z,32.83
2023-01-29T04:47:36.739Z,32.70
2023-01-29T04:52:48.520Z,32.90
2023-01-29T04:57:57.146Z,33.23
2023-01-29T05:03:01.471Z,32.33
2023-01-29T05:08:06.795Z,32.60
2023-01-29T05:13:14.173Z,32.67
2023-01-29T05:18:17.229Z,33.20
2023-01-29T05:23:23.717Z,33.10
2023-01-29T05:28:26.793Z,32.93
2023-01-29T05:33:31.369Z,32.90
2023-01-29T05:38:35.520Z,32.90
2023-01-29T05:43:38.378Z,33.73
2023-01-29T05:48:41.221Z,32.50
2023-01-29T05:53:45.399Z,33.03
2023-01-29T05:58:48.497Z,37.00
2023-01-29T06:03:51.454Z,32.97
2023-01-29T06:08:56.633Z,32.90
2023-01-29T06:13:59.552Z,32.63
2023-01-29T06:19:02.364Z,34.75
2023-01-29T06:24:07.337Z,32.93
2023-01-29T06:29:10.290Z,33.83
2023-01-29T06:34:13.160Z,39.30
2023-01-29T06:39:17.419Z,36.20
2023-01-29T06:44:20.441Z,36.60
2023-01-29T06:49:23.317Z,33.17
2023-01-29T06:54:27.536Z,32.63
2023-01-29T06:59:30.386Z,32.23
2023-01-29T07:04:33.341Z,32.53
2023-01-29T07:09:37.589Z,33.03
2023-01-29T07:14:40.520Z,33.50
2023-01-29T07:19:43.355Z,32.87
2023-01-29T07:24:48.347Z,32.73
2023-01-29T07:29:51.227Z,33.43
2023-01-29T07:34:54.038Z,33.23
2023-01-29T07:39:58.682Z,33.07
2023-01-29T07:45:01.565Z,33.80
2023-01-29T07:50:04.545Z,34.90
2023-01-29T07:55:09.733Z,35.73
2023-01-29T08:00:14.604Z,34.30
2023-01-29T08:05:17.814Z,34.20
2023-01-29T08:10:22.041Z,32.90
2023-01-29T08:15:25.365Z,33.43
2023-01-29T08:20:28.369Z,33.93
2023-01-29T08:25:33.301Z,34.10
2023-01-29T08:30:36.412Z,33.03
2023-01-29T08:35:41.102Z,34.10
2023-01-29T08:40:45.555Z,33.20
2023-01-29T08:45:48.447Z,33.37
2023-01-29T08:50:52.467Z,33.83
2023-01-29T08:55:56.676Z,33.37
2023-01-29T09:01:07.081Z,33.23
2023-01-29T09:06:10.740Z,33.10
2023-01-29T09:11:14.925Z,33.70
2023-01-29T09:16:17.849Z,33.67
2023-01-29T09:21:20.751Z,34.73
2023-01-29T09:26:24.963Z,33.27
2023-01-29T09:31:27.834Z,32.90
2023-01-29T09:36:30.752Z,34.57
2023-01-29T09:41:49.268Z,33.73
2023-01-29T09:46:53.706Z,33.67
2023-01-29T09:52:02.231Z,34.43
2023-01-29T09:57:12.018Z,33.97
2023-01-29T10:02:37.431Z,33.97
2023-01-29T10:08:06.264Z,34.40
2023-01-29T10:13:19.794Z,34.67
2023-01-29T10:18:43.863Z,33.83
2023-01-29T10:23:51.279Z,33.97
2023-01-29T10:28:57.959Z,34.13
2023-01-29T10:34:04.614Z,34.07
2023-01-29T10:39:13.172Z,33.53
2023-01-29T10:44:31.953Z,34.07
2023-01-29T10:50:10.619Z,34.47
2023-01-29T10:55:23.468Z,33.83
2023-01-29T11:00:31.172Z,33.43
2023-01-29T11:05:38.553Z,33.17
2023-01-29T11:10:47.742Z,33.73
2023-01-29T11:15:53.743Z,34.97
2023-01-29T11:21:03.413Z,33.23
2023-01-29T11:26:07.967Z,33.63
2023-01-29T11:31:21.692Z,34.77
2023-01-29T11:36:33.866Z,33.27
2023-01-29T11:41:44.673Z,33.70
2023-01-29T11:46:49.821Z,33.40
2023-01-29T11:51:55.609Z,33.30
2023-01-29T11:56:59.461Z,33.67
2023-01-29T12:02:20.222Z,33.60
2023-01-29T12:07:23.574Z,33.07
2023-01-29T12:12:33.147Z,34.70
2023-01-29T12:17:40.482Z,35.30
2023-01-29T12:22:50.360Z,34.13
2023-01-29T12:28:01.391Z,35.23
2023-01-29T12:33:13.573Z,35.50
2023-01-29T12:38:20.412Z,34.90
2023-01-29T12:43:28.554Z,34.60
2023-01-29T12:48:35.665Z,35.10
2023-01-29T12:53:47.479Z,33.87
2023-01-29T12:58:53.779Z,34.47
2023-01-29T13:04:03.693Z,34.57
2023-01-29T13:09:12.858Z,34.23
2023-01-29T13:14:22.451Z,34.20
2023-01-29T13:19:30.469Z,35.10
2023-01-29T13:24:39.810Z,34.50
2023-01-29T13:29:45.229Z,35.00
2023-01-29T13:34:50.965Z,35.57
2023-01-29T13:39:55.713Z,35.53
2023-01-29T13:45:02.676Z,35.27
2023-01-29T13:50:09.906Z,35.28
2023-01-29T13:55:26.193Z,35.27
2023-01-29T14:00:57.056Z,37.07
2023-01-29T14:06:02.529Z,35.50
2023-01-29T14:11:35.571Z,34.80
2023-01-29T14:16:38.876Z,35.60
2023-01-29T14:21:51.223Z,34.40
2023-01-29T14:26:56.134Z,34.63
2023-01-29T14:32:01.280Z,36.17
2023-01-29T14:37:21.867Z,34.90
2023-01-29T14:42:27.094Z,34.93
2023-01-29T14:48:02.324Z,36.17
2023-01-29T14:53:13.905Z,35.40
2023-01-29T14:58:20.753Z,35.20
2023-01-29T15:03:35.357Z,36.42
2023-01-29T15:08:44.735Z,35.92
2023-01-29T15:13:54.541Z,35.83
2023-01-29T15:19:08.095Z,35.05
2023-01-29T15:24:15.053Z,36.93
2023-01-29T15:29:24.452Z,35.37
2023-01-29T15:34:27.702Z,36.43
2023-01-29T15:39:32.036Z,35.97
2023-01-29T15:44:35.814Z,35.87
2023-01-29T15:49:41.111Z,36.60
2023-01-29T15:54:46.200Z,35.43
2023-01-29T15:59:51.743Z,34.87
2023-01-29T16:04:54.780Z,36.28
2023-01-29T16:10:00.452Z,36.50
2023-01-29T16:15:06.222Z,35.47
2023-01-29T16:20:31.057Z,36.80
2023-01-29T16:25:38.457Z,35.50
2023-01-29T16:30:41.436Z,35.07
2023-01-29T16:35:51.138Z,36.47
2023-01-29T16:41:28.353Z,36.57
2023-01-29T16:46:36.379Z,35.80
2023-01-29T16:51:40.377Z,37.93
2023-01-29T16:56:47.025Z,38.93
2023-01-29T17:01:50.382Z,40.70
2023-01-29T17:06:56.955Z,42.13
2023-01-29T17:12:03.818Z,37.40
2023-01-29T17:17:08.536Z,37.20
2023-01-29T17:22:14.746Z,35.43
2023-01-29T17:27:21.444Z,35.27
2023-01-29T17:32:44.702Z,37.07
2023-01-29T17:37:50.014Z,37.93
2023-01-29T17:42:54.213Z,36.90
2023-01-29T17:47:57.221Z,41.63
2023-01-29T17:53:00.119Z,40.07
2023-01-29T17:58:05.356Z,37.60
2023-01-29T18:03:08.608Z,38.07
2023-01-29T18:08:17.684Z,36.33
2023-01-29T18:13:22.869Z,36.57
2023-01-29T18:18:25.923Z,37.00
2023-01-29T18:23:29.395Z,35.73
2023-01-29T18:28:33.603Z,34.77
2023-01-29T18:33:37.048Z,35.90
2023-01-29T18:38:40.030Z,34.83
2023-01-29T18:43:44.362Z,34.37
2023-01-29T18:48:47.308Z,34.13
2023-01-29T18:53:51.700Z,35.23
2023-01-29T18:58:57.299Z,34.87
2023-01-29T19:04:01.689Z,33.23
2023-01-29T19:09:04.678Z,33.73
2023-01-29T19:14:08.999Z,34.23
2023-01-29T19:19:12.076Z,34.57
2023-01-29T19:24:21.425Z,35.23
2023-01-29T19:29:25.694Z,36.70
2023-01-29T19:34:28.590Z,34.23
2023-01-29T19:39:33.687Z,34.00
2023-01-29T19:44:38.981Z,33.77
2023-01-29T19:49:41.846Z,34.50
2023-01-29T19:54:47.936Z,35.37
2023-01-29T19:59:52.135Z,34.00
2023-01-29T20:04:55.222Z,34.07
2023-01-29T20:09:58.063Z,33.83
2023-01-29T20:15:03.183Z,34.20
2023-01-29T20:20:09.026Z,33.33
2023-01-29T20:25:15.543Z,34.47
2023-01-29T20:30:25.746Z,34.13
2023-01-29T20:35:31.291Z,34.53
2023-01-29T20:40:34.840Z,34.33
2023-01-29T20:45:41.231Z,35.03
2023-01-29T20:50:44.466Z,34.17
2023-01-29T20:55:48.342Z,35.03
2023-01-29T21:00:52.711Z,34.43
2023-01-29T21:05:58.985Z,34.73
2023-01-29T21:11:01.815Z,34.13
2023-01-29T21:16:06.857Z,36.07
2023-01-29T21:21:12.161Z,37.27
2023-01-29T21:26:15.122Z,35.17
2023-01-29T21:31:19.553Z,36.40
2023-01-29T21:36:22.427Z,34.63
2023-01-29T21:41:45.648Z,34.87
2023-01-29T21:46:49.794Z,34.60
2023-01-29T21:51:52.715Z,34.33
2023-01-29T21:56:55.566Z,35.70
2023-01-29T22:02:00.255Z,34.10
2023-01-29T22:07:03.087Z,34.67
2023-01-29T22:12:07.723Z,35.93
2023-01-29T22:17:12.360Z,35.37
2023-01-29T22:22:15.655Z,34.70
2023-01-29T22:27:18.489Z,35.70
2023-01-29T22:32:22.740Z,36.63
2023-01-29T22:37:25.588Z,36.23
2023-01-29T22:42:28.773Z,35.37
2023-01-29T22:47:34.700Z,37.10
2023-01-29T22:52:39.303Z,35.83
2023-01-29T22:57:42.101Z,34.73
2023-01-29T23:02:47.388Z,35.53
2023-01-29T23:07:50.264Z,36.50
2023-01-29T23:12:53.096Z,34.80
2023-01-29T23:17:57.233Z,35.40
2023-01-29T23:23:00.095Z,35.33
2023-01-29T23:28:04.267Z,35.57
2023-01-29T23:33:11.183Z,35.57
2023-01-29T23:38:14.865Z,35.17
2023-01-29T23:43:17.698Z,34.00
2023-01-29T23:48:22.151Z,33.90
2023-01-29T23:53:25.871Z,35.33
2023-01-29T23:58:29.517Z,34.47
